UPSVAC Airport Information Service

Budapest Ferihegy

ICAO: LHBP Country: Hungary, EU
Latitude: 47.4333 Longitude: 19.25
Latest Arrival : UPSJUMP (EPWA-LHBP) Latest Departure : UPSE1002 (LHBP-EDDK)


WX CaptureLIVE
Data provided by noaa.gov | Fetched at 09:13:34

METAR : LHBP 010830Z 07005KT 030V100 CAVOK 08/00 Q1032 NOSIG

TAF : LHBP 010515Z 0106/0206 35006KT CAVOK TEMPO 0106/0110 VRB03KT BECMG 0110/0112 07006KT SCT040 BECMG 0116/0119 VRB03KT CAVOK TEMPO 0202/0206 FZMIFG


Runway Data for LHBP
Data provided by openaviationdata.com

Runway ID Mag Var Hdg Length Elevation Surface ILS Freq ILS Id ILS Slope
13L 2 129° 12148 ft 443 ft Concrete 111.7 BPL 3
13R 2 129° 9861 ft 443 ft Concrete 110.5 FER 3
31L 2 309° 9861 ft 443 ft Concrete 111.5 FHL 3
31R 2 309° 12148 ft 443 ft Concrete 109.5 BPR 3

Budapest Ferihegy, Hungary, EU
Use only for reference purposes



Not for navigational purposes.